createdAt,value
2022-09-29T00:00:31.507Z,42.76
2022-09-29T00:01:31.511Z,47.12
2022-09-29T00:02:31.495Z,57.59
2022-09-29T00:03:31.519Z,53.04
2022-09-29T00:04:31.497Z,53.40
2022-09-29T00:05:31.463Z,50.58
2022-09-29T00:06:31.451Z,63.39
2022-09-29T00:07:31.444Z,49.24
2022-09-29T00:08:31.442Z,53.59
2022-09-29T00:09:31.456Z,53.01
2022-09-29T00:10:31.425Z,41.92
2022-09-29T00:11:31.407Z,64.96
2022-09-29T00:12:31.413Z,48.83
2022-09-29T00:13:31.395Z,40.98
2022-09-29T00:14:31.404Z,40.10
2022-09-29T00:15:31.377Z,40.55
2022-09-29T00:16:31.456Z,41.20
2022-09-29T00:17:31.360Z,55.01
2022-09-29T00:18:31.354Z,57.30
2022-09-29T00:19:31.377Z,64.95
2022-09-29T00:20:31.333Z,43.54
2022-09-29T00:21:31.330Z,50.75
2022-09-29T00:22:31.315Z,56.69
2022-09-29T00:23:31.320Z,55.86
2022-09-29T00:24:31.325Z,54.57
2022-09-29T00:25:31.296Z,40.64
2022-09-29T00:26:31.290Z,40.78
2022-09-29T00:27:31.272Z,58.71
2022-09-29T00:28:31.273Z,41.49
2022-09-29T00:29:31.305Z,53.71
2022-09-29T00:30:31.255Z,40.87
2022-09-29T00:31:31.288Z,47.48
2022-09-29T00:32:31.235Z,64.97
2022-09-29T00:33:31.228Z,55.25
2022-09-29T00:34:31.250Z,46.18
2022-09-29T00:35:31.213Z,55.32
2022-09-29T00:36:31.240Z,45.01
2022-09-29T00:37:31.195Z,50.21
2022-09-29T00:38:31.191Z,40.47
2022-09-29T00:39:31.203Z,55.61
2022-09-29T00:40:31.218Z,52.55
2022-09-29T00:41:31.168Z,54.08
2022-09-29T00:42:31.150Z,40.42
2022-09-29T00:43:31.138Z,51.96
2022-09-29T00:44:31.165Z,40.69
2022-09-29T00:45:31.212Z,50.64
2022-09-29T00:46:31.121Z,65.48
2022-09-29T00:47:31.125Z,43.18
2022-09-29T00:48:31.116Z,42.16
2022-09-29T00:49:31.126Z,53.78
2022-09-29T00:50:31.089Z,48.69
2022-09-29T00:51:31.082Z,49.59
2022-09-29T00:52:31.069Z,52.35
2022-09-29T00:53:31.069Z,66.55
2022-09-29T00:54:31.088Z,50.97
2022-09-29T00:55:31.052Z,49.47
2022-09-29T00:56:31.042Z,56.03
2022-09-29T00:57:31.032Z,58.93
2022-09-29T00:58:31.029Z,58.07
2022-09-29T00:59:31.067Z,64.73
2022-09-29T01:00:31.061Z,59.05
2022-09-29T01:01:31.000Z,58.86
2022-09-29T01:02:31.021Z,67.95
2022-09-29T01:03:30.988Z,47.88
2022-09-29T01:04:31.004Z,52.64
2022-09-29T01:05:30.975Z,48.04
2022-09-29T01:06:30.962Z,40.70
2022-09-29T01:07:30.949Z,47.98
2022-09-29T01:08:30.943Z,46.89
2022-09-29T01:09:30.965Z,65.43
2022-09-29T01:10:30.927Z,54.09
2022-09-29T01:11:30.913Z,61.96
2022-09-29T01:12:30.920Z,65.70
2022-09-29T01:13:30.903Z,56.43
2022-09-29T01:14:30.933Z,43.13
2022-09-29T01:15:30.884Z,60.19
2022-09-29T01:16:30.950Z,59.60
2022-09-29T01:17:30.922Z,62.36
2022-09-29T01:18:30.854Z,57.39
2022-09-29T01:19:30.881Z,49.60
2022-09-29T01:20:31.839Z,52.41
2022-09-29T01:21:30.834Z,41.10
2022-09-29T01:22:30.825Z,51.84
2022-09-29T01:23:30.810Z,61.21
2022-09-29T01:24:30.844Z,53.67
2022-09-29T01:25:30.800Z,42.54
2022-09-29T01:26:30.785Z,40.52
2022-09-29T01:27:30.791Z,57.53
2022-09-29T01:28:30.776Z,47.78
2022-09-29T01:29:30.762Z,49.24
2022-09-29T01:30:30.786Z,50.05
2022-09-29T01:31:30.826Z,62.16
2022-09-29T01:32:30.745Z,54.53
2022-09-29T01:33:30.740Z,64.13
2022-09-29T01:34:30.731Z,65.54
2022-09-29T01:35:30.752Z,59.45
2022-09-29T01:36:30.713Z,57.58
2022-09-29T01:37:30.696Z,43.93
2022-09-29T01:38:30.700Z,56.22
2022-09-29T01:39:30.681Z,42.27
2022-09-29T01:40:30.753Z,56.74
2022-09-29T01:41:30.662Z,61.78
2022-09-29T01:42:30.652Z,60.80
2022-09-29T01:43:30.647Z,45.69
2022-09-29T01:44:30.644Z,49.21
2022-09-29T01:45:30.743Z,62.11
2022-09-29T01:46:30.627Z,55.03
2022-09-29T01:47:30.624Z,54.02
2022-09-29T01:48:30.614Z,50.36
2022-09-29T01:49:30.600Z,53.57
2022-09-29T01:50:30.630Z,56.19
2022-09-29T01:51:30.580Z,52.58
2022-09-29T01:52:30.583Z,60.81
2022-09-29T01:53:30.573Z,56.06
2022-09-29T01:54:30.590Z,63.74
2022-09-29T01:55:30.593Z,49.51
2022-09-29T01:56:30.554Z,66.24
2022-09-29T01:57:30.534Z,59.21
2022-09-29T01:58:30.523Z,50.45
2022-09-29T01:59:30.562Z,58.44
2022-09-29T02:00:30.568Z,42.24
2022-09-29T02:01:30.502Z,51.35
2022-09-29T02:02:30.548Z,57.21
2022-09-29T02:03:30.491Z,51.24
2022-09-29T02:04:30.529Z,62.02
2022-09-29T02:05:30.476Z,56.39
2022-09-29T02:06:30.472Z,57.65
2022-09-29T02:07:30.454Z,65.88
2022-09-29T02:08:30.444Z,55.66
2022-09-29T02:09:30.466Z,57.37
2022-09-29T02:10:30.434Z,54.60
2022-09-29T02:11:30.432Z,52.19
2022-09-29T02:12:30.415Z,49.36
2022-09-29T02:13:30.405Z,50.06
2022-09-29T02:14:30.399Z,50.79
2022-09-29T02:15:30.446Z,62.52
2022-09-29T02:16:30.448Z,57.77
2022-09-29T02:17:30.378Z,44.13
2022-09-29T02:18:30.361Z,55.23
2022-09-29T02:19:30.354Z,55.66
2022-09-29T02:20:30.381Z,56.01
2022-09-29T02:21:30.337Z,58.32
2022-09-29T02:22:30.335Z,53.45
2022-09-29T02:23:30.326Z,63.51
2022-09-29T02:24:30.313Z,41.73
2022-09-29T02:25:30.334Z,47.60
2022-09-29T02:26:30.299Z,63.54
2022-09-29T02:27:30.286Z,59.08
2022-09-29T02:28:30.279Z,65.06
2022-09-29T02:29:30.272Z,61.72
2022-09-29T02:30:30.295Z,64.14
2022-09-29T02:31:30.286Z,55.58
2022-09-29T02:32:30.252Z,54.09
2022-09-29T02:33:30.241Z,68.88
2022-09-29T02:34:30.229Z,65.51
2022-09-29T02:35:30.250Z,51.71
2022-09-29T02:36:30.215Z,55.82
2022-09-29T02:37:30.209Z,51.93
2022-09-29T02:38:30.189Z,67.30
2022-09-29T02:39:30.185Z,64.94
2022-09-29T02:40:30.273Z,63.10
2022-09-29T02:41:30.169Z,65.01
2022-09-29T02:42:30.160Z,61.06
2022-09-29T02:43:30.155Z,58.97
2022-09-29T02:44:30.145Z,59.00
2022-09-29T02:45:30.203Z,63.85
2022-09-29T02:46:30.130Z,53.99
2022-09-29T02:47:30.122Z,61.13
2022-09-29T02:48:30.119Z,66.84
2022-09-29T02:49:30.115Z,56.73
2022-09-29T02:50:30.134Z,63.30
2022-09-29T02:51:30.087Z,57.02
2022-09-29T02:52:30.079Z,58.28
2022-09-29T02:53:30.075Z,64.36
2022-09-29T02:54:30.069Z,62.13
2022-09-29T02:55:30.090Z,61.50
2022-09-29T02:56:30.051Z,50.80
2022-09-29T02:57:30.040Z,64.13
2022-09-29T02:58:30.035Z,64.63
2022-09-29T02:59:30.064Z,51.98
2022-09-29T03:00:30.073Z,63.09
2022-09-29T03:01:30.005Z,61.10
2022-09-29T03:02:30.017Z,61.96
2022-09-29T03:03:30.025Z,65.31
2022-09-29T03:04:30.013Z,59.39
2022-09-29T03:05:29.967Z,58.39
2022-09-29T03:06:29.973Z,66.58
2022-09-29T03:07:29.956Z,70.63
2022-09-29T03:08:29.945Z,53.42
2022-09-29T03:09:29.946Z,61.24
2022-09-29T03:10:30.507Z,63.46
2022-09-29T03:11:30.919Z,51.87
2022-09-29T03:12:29.918Z,68.50
2022-09-29T03:13:29.908Z,63.78
2022-09-29T03:14:29.898Z,67.09
2022-09-29T03:15:29.915Z,63.47
2022-09-29T03:16:29.984Z,60.46
2022-09-29T03:17:29.872Z,60.29
2022-09-29T03:18:29.866Z,64.91
2022-09-29T03:19:30.858Z,69.11
2022-09-29T03:20:29.873Z,62.25
2022-09-29T03:21:29.858Z,67.44
2022-09-29T03:22:29.838Z,57.69
2022-09-29T03:23:29.844Z,63.36
2022-09-29T03:24:29.816Z,67.62
2022-09-29T03:25:29.835Z,71.95
2022-09-29T03:26:29.802Z,61.20
2022-09-29T03:27:29.795Z,67.84
2022-09-29T03:28:29.787Z,68.37
2022-09-29T03:29:29.785Z,67.88
2022-09-29T03:30:29.798Z,62.69
2022-09-29T03:31:29.863Z,70.36
2022-09-29T03:32:29.754Z,66.00
2022-09-29T03:33:29.750Z,70.92
2022-09-29T03:34:29.738Z,70.15
2022-09-29T03:35:29.751Z,67.94
2022-09-29T03:36:29.722Z,58.54
2022-09-29T03:37:29.713Z,65.36
2022-09-29T03:38:29.703Z,64.37
2022-09-29T03:39:29.689Z,66.17
2022-09-29T03:40:29.809Z,70.24
2022-09-29T03:41:29.675Z,67.23
2022-09-29T03:42:29.663Z,61.37
2022-09-29T03:43:29.662Z,63.85
2022-09-29T03:44:29.690Z,69.02
2022-09-29T03:45:29.675Z,63.57
2022-09-29T03:46:29.641Z,66.60
2022-09-29T03:47:29.639Z,62.93
2022-09-29T03:48:29.611Z,74.06
2022-09-29T03:49:29.647Z,61.25
2022-09-29T03:50:29.606Z,59.95
2022-09-29T03:51:29.592Z,64.16
2022-09-29T03:52:29.587Z,69.51
2022-09-29T03:53:29.586Z,67.13
2022-09-29T03:54:29.608Z,69.05
2022-09-29T03:55:29.562Z,74.25
2022-09-29T03:56:29.562Z,72.37
2022-09-29T03:57:29.544Z,59.88
2022-09-29T03:58:29.537Z,62.55
2022-09-29T03:59:29.557Z,69.07
2022-09-29T04:00:29.537Z,61.29
2022-09-29T04:01:29.510Z,56.31
2022-09-29T04:02:29.529Z,67.21
2022-09-29T04:03:29.503Z,71.69
2022-09-29T04:04:29.515Z,69.12
2022-09-29T04:05:29.479Z,64.44
2022-09-29T04:06:29.474Z,64.55
2022-09-29T04:07:29.463Z,71.05
2022-09-29T04:08:29.455Z,65.01
2022-09-29T04:09:31.762Z,71.84
2022-09-29T04:10:29.432Z,68.78
2022-09-29T04:11:29.425Z,72.68
2022-09-29T04:12:29.414Z,65.24
2022-09-29T04:13:29.406Z,70.14
2022-09-29T04:14:29.431Z,70.23
2022-09-29T04:15:29.389Z,69.65
2022-09-29T04:16:29.463Z,68.97
2022-09-29T04:17:29.386Z,57.30
2022-09-29T04:18:29.369Z,69.99
2022-09-29T04:19:29.383Z,72.67
2022-09-29T04:20:29.355Z,64.57
2022-09-29T04:21:29.344Z,71.62
2022-09-29T04:22:29.338Z,70.61
2022-09-29T04:23:29.325Z,67.90
2022-09-29T04:24:29.344Z,71.22
2022-09-29T04:25:29.304Z,67.72
2022-09-29T04:26:29.298Z,70.67
2022-09-29T04:27:29.295Z,73.92
2022-09-29T04:28:29.282Z,67.71
2022-09-29T04:29:29.300Z,65.90
2022-09-29T04:30:29.263Z,69.91
2022-09-29T04:31:29.321Z,71.44
2022-09-29T04:32:29.245Z,68.94
2022-09-29T04:33:29.240Z,65.85
2022-09-29T04:34:29.262Z,69.44
2022-09-29T04:35:31.564Z,71.05
2022-09-29T04:36:29.227Z,71.78
2022-09-29T04:37:29.208Z,71.93
2022-09-29T04:38:29.200Z,71.14
2022-09-29T04:39:29.218Z,72.50
2022-09-29T04:40:29.226Z,72.77
2022-09-29T04:41:29.180Z,63.29
2022-09-29T04:42:29.173Z,68.74
2022-09-29T04:43:29.157Z,66.42
2022-09-29T04:44:29.195Z,72.45
2022-09-29T04:45:29.206Z,70.90
2022-09-29T04:46:29.128Z,71.80
2022-09-29T04:47:29.122Z,71.17
2022-09-29T04:48:32.463Z,71.09
2022-09-29T04:49:30.140Z,71.23
2022-09-29T04:50:29.100Z,69.91
2022-09-29T04:51:29.091Z,71.02
2022-09-29T04:52:29.089Z,72.71
2022-09-29T04:53:29.068Z,73.13
2022-09-29T04:54:29.091Z,68.47
2022-09-29T04:55:29.061Z,71.48
2022-09-29T04:56:29.054Z,71.81
2022-09-29T04:57:29.039Z,69.49
2022-09-29T04:58:29.031Z,70.87
2022-09-29T04:59:29.050Z,69.52
2022-09-29T05:00:29.015Z,65.20
2022-09-29T05:01:29.007Z,69.97
2022-09-29T05:02:29.070Z,69.17
2022-09-29T05:03:29.002Z,71.08
2022-09-29T05:04:29.018Z,70.22
2022-09-29T05:05:28.986Z,70.72
2022-09-29T05:06:28.970Z,67.98
2022-09-29T05:07:28.966Z,67.34
2022-09-29T05:08:28.952Z,72.73
2022-09-29T05:09:33.318Z,70.85
2022-09-29T05:10:30.949Z,70.64
2022-09-29T05:11:28.927Z,71.58
2022-09-29T05:12:28.925Z,72.52
2022-09-29T05:13:28.919Z,70.82
2022-09-29T05:14:28.904Z,71.32
2022-09-29T05:15:28.925Z,70.94
2022-09-29T05:16:28.943Z,71.00
2022-09-29T05:17:28.886Z,67.97
2022-09-29T05:18:28.877Z,73.42
2022-09-29T05:19:28.965Z,72.36
2022-09-29T05:20:36.486Z,72.89
2022-09-29T05:21:30.850Z,70.52
2022-09-29T05:22:28.837Z,71.46
2022-09-29T05:23:28.834Z,76.54
2022-09-29T05:24:28.814Z,77.36
2022-09-29T05:25:31.716Z,79.54
2022-09-29T05:26:28.802Z,76.86
2022-09-29T05:27:28.803Z,72.97
2022-09-29T05:28:28.787Z,68.32
2022-09-29T05:29:28.779Z,73.11
2022-09-29T05:30:28.805Z,73.51
2022-09-29T05:31:28.803Z,74.56
2022-09-29T05:32:28.750Z,70.55
2022-09-29T05:33:28.746Z,72.58
2022-09-29T05:34:28.739Z,71.85
2022-09-29T05:35:28.756Z,71.53
2022-09-29T05:36:28.715Z,71.70
2022-09-29T05:37:28.708Z,70.36
2022-09-29T05:38:28.705Z,69.21
2022-09-29T05:39:28.692Z,69.62
2022-09-29T05:40:28.756Z,70.38
2022-09-29T05:41:28.686Z,72.13
2022-09-29T05:42:28.665Z,69.92
2022-09-29T05:43:28.660Z,69.64
2022-09-29T05:44:28.654Z,70.65
2022-09-29T05:45:29.720Z,74.35
2022-09-29T05:46:28.645Z,68.22
2022-09-29T05:47:28.632Z,68.65
2022-09-29T05:48:28.621Z,70.08
2022-09-29T05:49:28.614Z,70.31
2022-09-29T05:50:28.641Z,72.60
2022-09-29T05:51:28.595Z,69.30
2022-09-29T05:52:29.591Z,73.46
2022-09-29T05:53:28.575Z,69.85
2022-09-29T05:54:28.571Z,72.36
2022-09-29T05:55:28.594Z,70.95
2022-09-29T05:56:28.553Z,67.46
2022-09-29T05:57:28.551Z,67.50
2022-09-29T05:58:28.535Z,71.80
2022-09-29T05:59:28.535Z,73.37
2022-09-29T06:00:28.573Z,70.76
2022-09-29T06:01:28.694Z,68.96
2022-09-29T06:02:28.549Z,69.14
2022-09-29T06:03:28.503Z,72.85
2022-09-29T06:04:28.499Z,71.93
2022-09-29T06:05:28.523Z,69.54
2022-09-29T06:06:28.469Z,72.13
2022-09-29T06:07:28.464Z,65.63
2022-09-29T06:08:28.454Z,72.20
2022-09-29T06:09:28.450Z,68.93
2022-09-29T06:10:28.465Z,68.24
2022-09-29T06:11:28.466Z,66.73
2022-09-29T06:12:28.518Z,71.51
2022-09-29T06:13:28.418Z,71.70
2022-09-29T06:14:28.412Z,68.92
2022-09-29T06:15:28.409Z,66.78
2022-09-29T06:16:28.503Z,71.25
2022-09-29T06:17:28.390Z,72.44
2022-09-29T06:18:28.368Z,72.45
2022-09-29T06:19:29.367Z,67.42
2022-09-29T06:20:28.414Z,72.26
2022-09-29T06:21:28.384Z,72.13
2022-09-29T06:22:28.347Z,69.69
2022-09-29T06:23:28.348Z,66.32
2022-09-29T06:24:28.340Z,67.47
2022-09-29T06:25:28.334Z,74.31
2022-09-29T06:26:28.349Z,69.61
2022-09-29T06:27:28.310Z,70.89
2022-09-29T06:28:28.298Z,70.10
2022-09-29T06:29:28.289Z,71.47
2022-09-29T06:30:28.284Z,73.14
2022-09-29T06:31:28.333Z,70.77
2022-09-29T06:32:28.271Z,65.64
2022-09-29T06:33:28.259Z,70.97
2022-09-29T06:34:28.251Z,67.78
2022-09-29T06:35:28.247Z,71.64
2022-09-29T06:36:28.269Z,65.52
2022-09-29T06:37:28.228Z,68.21
2022-09-29T06:38:28.216Z,70.45
2022-09-29T06:39:28.218Z,71.67
2022-09-29T06:40:28.347Z,65.95
2022-09-29T06:41:28.221Z,67.65
2022-09-29T06:42:28.190Z,71.79
2022-09-29T06:43:28.175Z,70.64
2022-09-29T06:44:28.166Z,68.02
2022-09-29T06:45:28.208Z,69.17
2022-09-29T06:46:32.295Z,70.48
2022-09-29T06:47:28.140Z,71.46
2022-09-29T06:48:28.133Z,72.35
2022-09-29T06:49:28.160Z,67.28
2022-09-29T06:50:28.115Z,70.42
2022-09-29T06:51:39.027Z,71.42
2022-09-29T06:52:30.241Z,69.97
2022-09-29T06:53:37.481Z,65.60
2022-09-29T06:54:30.083Z,66.25
2022-09-29T06:55:28.081Z,69.87
2022-09-29T06:56:28.097Z,70.19
2022-09-29T06:57:28.057Z,68.15
2022-09-29T06:58:28.051Z,69.92
2022-09-29T06:59:28.053Z,68.03
2022-09-29T07:00:28.031Z,73.54
2022-09-29T07:01:28.124Z,69.37
2022-09-29T07:02:28.057Z,71.65
2022-09-29T07:03:28.006Z,72.34
2022-09-29T07:04:28.004Z,67.87
2022-09-29T07:05:27.987Z,64.86
2022-09-29T07:06:28.010Z,73.12
2022-09-29T07:07:27.978Z,70.03
2022-09-29T07:08:27.969Z,71.53
2022-09-29T07:09:27.960Z,65.47
2022-09-29T07:10:27.957Z,68.05
2022-09-29T07:11:28.037Z,65.70
2022-09-29T07:12:27.938Z,70.53
2022-09-29T07:13:27.980Z,67.40
2022-09-29T07:14:27.921Z,68.32
2022-09-29T07:15:27.917Z,65.79
2022-09-29T07:16:27.961Z,74.10
2022-09-29T07:17:27.893Z,71.90
2022-09-29T07:18:27.886Z,71.20
2022-09-29T07:19:27.876Z,70.67
2022-09-29T07:20:27.873Z,69.91
2022-09-29T07:21:27.896Z,70.49
2022-09-29T07:22:27.856Z,65.31
2022-09-29T07:23:27.880Z,70.64
2022-09-29T07:24:27.839Z,68.19
2022-09-29T07:25:50.578Z,68.19
2022-09-29T07:26:29.855Z,69.66
2022-09-29T07:27:27.814Z,70.85
2022-09-29T07:28:27.816Z,65.01
2022-09-29T07:29:27.800Z,71.22
2022-09-29T07:30:37.943Z,69.51
2022-09-29T07:31:32.893Z,71.11
2022-09-29T07:32:28.840Z,67.54
2022-09-29T07:33:37.954Z,70.24
2022-09-29T07:34:29.769Z,65.27
2022-09-29T07:35:27.759Z,70.74
2022-09-29T07:36:27.775Z,73.15
2022-09-29T07:37:27.733Z,71.35
2022-09-29T07:38:27.726Z,69.54
2022-09-29T07:39:27.722Z,70.74
2022-09-29T07:40:27.755Z,72.73
2022-09-29T07:41:28.474Z,67.42
2022-09-29T07:42:27.702Z,69.10
2022-09-29T07:43:27.687Z,66.43
2022-09-29T07:44:27.677Z,70.75
2022-09-29T07:45:27.726Z,66.06
2022-09-29T07:46:27.684Z,67.31
2022-09-29T07:47:27.690Z,68.50
2022-09-29T07:48:31.394Z,71.50
2022-09-29T07:49:28.633Z,68.05
2022-09-29T07:50:27.632Z,69.52
2022-09-29T07:51:27.620Z,69.97
2022-09-29T07:52:27.632Z,69.07
2022-09-29T07:53:27.601Z,71.74
2022-09-29T07:54:29.677Z,67.42
2022-09-29T07:55:28.592Z,69.41
2022-09-29T07:56:27.572Z,65.89
2022-09-29T07:57:27.620Z,67.58
2022-09-29T07:58:27.567Z,69.88
2022-09-29T07:59:27.550Z,70.07
2022-09-29T08:00:27.544Z,67.04
2022-09-29T08:01:27.594Z,62.77
2022-09-29T08:02:27.630Z,70.19
2022-09-29T08:03:27.520Z,69.89
2022-09-29T08:04:27.507Z,70.64
2022-09-29T08:05:27.508Z,64.54
2022-09-29T08:06:27.498Z,67.38
2022-09-29T08:07:27.510Z,70.85
2022-09-29T08:08:27.468Z,69.57
2022-09-29T08:09:39.230Z,69.04
2022-09-29T08:10:29.462Z,67.64
2022-09-29T08:11:31.445Z,69.16
2022-09-29T08:12:38.454Z,67.34
2022-09-29T08:13:29.438Z,67.94
2022-09-29T08:14:27.418Z,65.62
2022-09-29T08:15:27.413Z,71.98
2022-09-29T08:16:27.520Z,71.54
2022-09-29T08:17:27.421Z,66.47
2022-09-29T08:18:27.384Z,67.01
2022-09-29T08:19:27.380Z,64.68
2022-09-29T08:20:27.365Z,70.66
2022-09-29T08:21:27.351Z,72.04
2022-09-29T08:22:27.372Z,68.17
2022-09-29T08:23:27.333Z,72.45
2022-09-29T08:24:27.331Z,71.01
2022-09-29T08:25:27.329Z,66.86
2022-09-29T08:26:40.741Z,68.42
2022-09-29T08:27:29.403Z,67.01
2022-09-29T08:28:32.005Z,65.76
2022-09-29T08:29:41.269Z,69.89
2022-09-29T08:30:29.283Z,69.30
2022-09-29T08:31:27.292Z,69.39
2022-09-29T08:32:27.295Z,65.86
2022-09-29T08:33:27.248Z,67.82
2022-09-29T08:34:27.243Z,70.30
2022-09-29T08:35:27.233Z,72.58
2022-09-29T08:36:27.225Z,67.29
2022-09-29T08:37:27.255Z,65.10
2022-09-29T08:38:27.212Z,65.56
2022-09-29T08:39:27.199Z,71.48
2022-09-29T08:40:27.243Z,65.51
2022-09-29T08:41:27.189Z,65.78
2022-09-29T08:42:27.667Z,68.39
2022-09-29T08:43:34.447Z,67.45
2022-09-29T08:44:37.737Z,62.15
2022-09-29T08:45:29.230Z,65.41
2022-09-29T08:46:35.106Z,63.71
2022-09-29T08:47:41.850Z,72.29
2022-09-29T08:48:29.134Z,71.91
2022-09-29T08:49:32.908Z,72.18
2022-09-29T08:50:29.112Z,68.01
2022-09-29T08:51:39.171Z,67.41
2022-09-29T08:52:29.333Z,70.99
2022-09-29T08:53:29.386Z,69.32
2022-09-29T08:54:37.927Z,70.57
2022-09-29T08:55:29.078Z,69.70
2022-09-29T08:56:27.101Z,70.77
2022-09-29T08:57:27.103Z,64.14
2022-09-29T08:58:27.063Z,66.42
2022-09-29T08:59:27.058Z,65.96
2022-09-29T09:00:27.050Z,68.20
2022-09-29T09:01:27.114Z,67.25
2022-09-29T09:02:27.157Z,66.38
2022-09-29T09:03:27.016Z,68.02
2022-09-29T09:04:27.015Z,70.43
2022-09-29T09:05:27.000Z,65.62
2022-09-29T09:06:26.995Z,73.61
2022-09-29T09:07:27.014Z,71.69
2022-09-29T09:08:26.997Z,67.28
2022-09-29T09:09:26.966Z,65.46
2022-09-29T09:10:26.954Z,69.76
2022-09-29T09:11:26.953Z,66.14
2022-09-29T09:12:26.953Z,63.88
2022-09-29T09:13:26.959Z,66.84
2022-09-29T09:14:26.936Z,70.88
2022-09-29T09:15:26.917Z,70.67
2022-09-29T09:16:26.962Z,68.23
2022-09-29T09:17:26.907Z,59.09
2022-09-29T09:18:26.930Z,60.72
2022-09-29T09:19:27.008Z,71.09
2022-09-29T09:20:26.885Z,71.17
2022-09-29T09:21:26.886Z,70.46
2022-09-29T09:22:26.889Z,69.42
2022-09-29T09:23:26.905Z,66.38
2022-09-29T09:24:26.898Z,69.18
2022-09-29T09:25:26.843Z,66.17
2022-09-29T09:26:26.837Z,63.47
2022-09-29T09:27:26.827Z,71.70
2022-09-29T09:28:26.866Z,70.76
2022-09-29T09:29:26.814Z,63.75
2022-09-29T09:30:26.829Z,63.86
2022-09-29T09:31:26.792Z,62.91
2022-09-29T09:32:26.788Z,70.36
2022-09-29T09:33:31.417Z,68.01
2022-09-29T09:34:42.009Z,67.48
2022-09-29T09:35:28.764Z,69.96
2022-09-29T09:36:33.855Z,70.74
2022-09-29T09:37:28.756Z,62.46
2022-09-29T09:38:26.765Z,67.19
2022-09-29T09:39:26.733Z,68.46
2022-09-29T09:40:26.725Z,69.62
2022-09-29T09:41:26.712Z,67.34
2022-09-29T09:42:26.705Z,65.50
2022-09-29T09:43:27.756Z,68.98
2022-09-29T09:44:26.693Z,67.68
2022-09-29T09:45:26.685Z,70.58
2022-09-29T09:46:29.921Z,70.62
2022-09-29T09:47:27.681Z,64.67
2022-09-29T09:48:31.433Z,67.44
2022-09-29T09:49:28.686Z,64.86
2022-09-29T09:50:26.654Z,71.07
2022-09-29T09:51:29.257Z,67.08
2022-09-29T09:52:26.635Z,66.35
2022-09-29T09:53:26.657Z,63.67
2022-09-29T09:54:26.631Z,67.49
2022-09-29T09:55:26.623Z,66.65
2022-09-29T09:56:26.613Z,63.36
2022-09-29T09:57:26.611Z,70.09
2022-09-29T09:58:26.631Z,70.40
2022-09-29T09:59:26.594Z,65.53
2022-09-29T10:00:26.585Z,67.24
2022-09-29T10:01:26.614Z,66.57
2022-09-29T10:02:26.637Z,71.08
2022-09-29T10:03:26.601Z,70.81
2022-09-29T10:04:26.558Z,66.40
2022-09-29T10:05:26.548Z,68.71
2022-09-29T10:06:26.542Z,63.30
2022-09-29T10:07:26.535Z,66.30
2022-09-29T10:08:26.564Z,71.64
2022-09-29T10:09:26.557Z,69.34
2022-09-29T10:10:26.526Z,70.11
2022-09-29T10:11:26.513Z,68.44
2022-09-29T10:12:26.504Z,67.61
2022-09-29T10:13:26.525Z,71.97
2022-09-29T10:14:26.495Z,69.56
2022-09-29T10:15:26.485Z,69.36
2022-09-29T10:16:26.514Z,61.70
2022-09-29T10:17:26.486Z,67.76
2022-09-29T10:18:26.492Z,66.65
2022-09-29T10:19:26.466Z,70.86
2022-09-29T10:20:26.457Z,66.51
2022-09-29T10:21:26.448Z,68.47
2022-09-29T10:22:26.438Z,69.97
2022-09-29T10:23:26.457Z,70.95
2022-09-29T10:24:26.424Z,67.81
2022-09-29T10:25:26.427Z,64.44
2022-09-29T10:26:26.413Z,61.23
2022-09-29T10:27:26.408Z,71.71
2022-09-29T10:28:26.432Z,67.82
2022-09-29T10:29:26.407Z,70.07
2022-09-29T10:30:26.456Z,70.93
2022-09-29T10:31:26.379Z,67.36
2022-09-29T10:32:26.375Z,65.39
2022-09-29T10:33:26.436Z,66.40
2022-09-29T10:34:26.361Z,65.85
2022-09-29T10:35:26.359Z,65.02
2022-09-29T10:36:26.362Z,69.38
2022-09-29T10:37:26.343Z,69.49
2022-09-29T10:38:26.366Z,70.00
2022-09-29T10:39:26.311Z,70.32
2022-09-29T10:40:27.318Z,68.85
2022-09-29T10:41:26.317Z,65.59
2022-09-29T10:42:26.299Z,67.79
2022-09-29T10:43:26.348Z,72.05
2022-09-29T10:44:26.290Z,71.29
2022-09-29T10:45:26.305Z,69.07
2022-09-29T10:46:26.319Z,68.22
2022-09-29T10:47:26.272Z,62.48
2022-09-29T10:48:26.308Z,69.47
2022-09-29T10:49:26.256Z,70.44
2022-09-29T10:50:26.248Z,65.52
2022-09-29T10:51:26.241Z,61.50
2022-09-29T10:52:26.249Z,66.43
2022-09-29T10:53:26.263Z,66.52
2022-09-29T10:54:26.223Z,70.70
2022-09-29T10:55:26.213Z,67.05
2022-09-29T10:56:26.224Z,67.05
2022-09-29T10:57:26.207Z,70.47
2022-09-29T10:58:45.220Z,64.09
2022-09-29T10:59:28.223Z,65.98
2022-09-29T11:00:26.187Z,68.41
2022-09-29T11:01:26.246Z,65.14
2022-09-29T11:02:26.221Z,66.49
2022-09-29T11:03:26.162Z,70.39
2022-09-29T11:04:26.192Z,68.86
2022-09-29T11:05:26.154Z,68.83
2022-09-29T11:06:26.147Z,67.61
2022-09-29T11:07:26.143Z,65.33
2022-09-29T11:08:26.138Z,66.14
2022-09-29T11:09:26.197Z,69.64
2022-09-29T11:10:26.129Z,68.54
2022-09-29T11:11:26.133Z,69.58
2022-09-29T11:12:26.101Z,67.69
2022-09-29T11:13:26.095Z,65.85
2022-09-29T11:14:26.121Z,70.45
2022-09-29T11:15:26.091Z,67.35
2022-09-29T11:16:26.105Z,67.93
2022-09-29T11:17:26.065Z,69.00
2022-09-29T11:18:26.071Z,69.80
2022-09-29T11:19:26.084Z,68.11
2022-09-29T11:20:26.048Z,69.30
2022-09-29T11:21:26.049Z,64.35
2022-09-29T11:22:26.038Z,68.40
2022-09-29T11:23:26.031Z,66.53
2022-09-29T11:24:26.048Z,67.03
2022-09-29T11:25:26.016Z,67.76
2022-09-29T11:26:26.013Z,55.72
2022-09-29T11:27:26.001Z,68.84
2022-09-29T11:28:26.006Z,65.13
2022-09-29T11:29:26.009Z,63.62
2022-09-29T11:30:26.042Z,70.63
2022-09-29T11:31:25.965Z,69.92
2022-09-29T11:32:25.958Z,70.01
2022-09-29T11:33:25.954Z,65.96
2022-09-29T11:34:25.970Z,63.61
2022-09-29T11:35:25.936Z,70.80
2022-09-29T11:36:25.930Z,72.20
2022-09-29T11:37:25.918Z,70.19
2022-09-29T11:38:25.907Z,63.69
2022-09-29T11:39:25.927Z,67.76
2022-09-29T11:40:25.909Z,65.96
2022-09-29T11:41:25.887Z,67.09
2022-09-29T11:42:25.882Z,63.42
2022-09-29T11:43:25.870Z,65.53
2022-09-29T11:44:25.896Z,65.26
2022-09-29T11:45:25.872Z,72.64
2022-09-29T11:46:26.050Z,70.33
2022-09-29T11:47:25.842Z,65.92
2022-09-29T11:48:27.367Z,66.51
2022-09-29T11:49:25.845Z,68.21
2022-09-29T11:50:25.815Z,67.32
2022-09-29T11:51:25.802Z,68.57
2022-09-29T11:52:25.790Z,69.17
2022-09-29T11:53:25.788Z,67.31
2022-09-29T11:54:25.886Z,64.43
2022-09-29T11:55:25.785Z,67.09
2022-09-29T11:56:25.777Z,66.73
2022-09-29T11:57:25.759Z,69.28
2022-09-29T11:58:25.759Z,69.02
2022-09-29T11:59:25.776Z,66.53
2022-09-29T12:00:25.735Z,63.51
2022-09-29T12:01:25.728Z,68.27
2022-09-29T12:02:25.797Z,67.31
2022-09-29T12:03:25.756Z,69.72
2022-09-29T12:04:25.734Z,69.25
2022-09-29T12:05:25.701Z,69.02
2022-09-29T12:06:25.683Z,64.66
2022-09-29T12:07:25.680Z,67.05
2022-09-29T12:08:25.673Z,69.50
2022-09-29T12:09:25.735Z,70.74
2022-09-29T12:10:26.312Z,68.39
2022-09-29T12:11:47.385Z,70.39
2022-09-29T12:12:27.641Z,70.90
2022-09-29T12:13:25.630Z,69.32
2022-09-29T12:14:25.648Z,68.99
2022-09-29T12:16:25.670Z,67.98
2022-09-29T12:17:25.607Z,70.58
2022-09-29T12:18:25.596Z,69.36
2022-09-29T12:19:25.618Z,57.31
2022-09-29T12:20:25.578Z,67.76
2022-09-29T12:21:25.570Z,65.40
2022-09-29T12:22:25.567Z,70.82
2022-09-29T12:23:25.557Z,71.62
2022-09-29T12:24:25.586Z,67.14
2022-09-29T12:25:25.551Z,66.68
2022-09-29T12:26:25.623Z,67.71
2022-09-29T12:27:25.554Z,66.46
2022-09-29T12:28:25.530Z,68.41
2022-09-29T12:29:25.544Z,69.55
2022-09-29T12:30:25.501Z,66.40
2022-09-29T12:31:25.516Z,66.73
2022-09-29T12:32:25.492Z,64.05
2022-09-29T12:33:25.510Z,68.88
2022-09-29T12:34:25.502Z,70.62
2022-09-29T12:35:25.470Z,70.13
2022-09-29T12:36:25.460Z,66.64
2022-09-29T12:37:25.449Z,63.94
2022-09-29T12:38:25.440Z,65.31
2022-09-29T12:39:25.470Z,69.54
2022-09-29T12:40:25.430Z,65.79
2022-09-29T12:41:25.422Z,66.36
2022-09-29T12:42:25.410Z,66.60
2022-09-29T12:43:25.406Z,66.46
2022-09-29T12:44:25.421Z,62.80
2022-09-29T12:45:25.384Z,70.67
2022-09-29T12:46:25.460Z,68.63
2022-09-29T12:47:25.375Z,68.00
2022-09-29T12:48:25.355Z,69.39
2022-09-29T12:49:25.388Z,69.38
2022-09-29T12:50:25.341Z,69.87
2022-09-29T12:51:25.341Z,68.65
2022-09-29T12:52:25.327Z,66.35
2022-09-29T12:53:25.323Z,67.11